Time;durP1;ratioP1;P1;durP2;ratioP2;P2;SDS_P1;SDS_P2;PMS_P1;PMS_P2;Temp;Humidity;BMP_temperature;BMP_pressure;BME280_temperature;BME280_humidity;BME280_pressure;Samples;Min_cycle;Max_cycle;Signal;HPM_P1;HPM_P2
2021/05/08 00:00:01;;;;;;;5.47;5.07;;;;;;;;;;4996695;28;20584;-45
2021/05/08 00:02:26;;;;;;;5.67;5.27;;;;;;;;;;5008926;28;20206;-45
2021/05/08 00:04:51;;;;;;;6.63;5.80;;;;;;;;;;4995265;28;20182;-44
2021/05/08 00:07:16;;;;;;;5.82;5.32;;;;;;;;;;5008804;28;20182;-45
2021/05/08 00:09:41;;;;;;;6.10;5.57;;;;;;;;;;5010352;28;20176;-45
2021/05/08 00:12:07;;;;;;;6.05;5.55;;;;;;;;;;5006618;28;20241;-44
2021/05/08 00:14:32;;;;;;;6.70;6.10;;;;;;;;;;5003464;28;20191;-45
2021/05/08 00:16:57;;;;;;;5.50;5.10;;;;;;;;;;5009886;28;20210;-45
2021/05/08 00:19:23;;;;;;;6.20;5.60;;;;;;;;;;5010798;28;20238;-44
2021/05/08 00:21:49;;;;;;;5.90;5.43;;;;;;;;;;5010520;28;20214;-44
2021/05/08 00:24:14;;;;;;;5.90;5.50;;;;;;;;;;5010231;28;21227;-45
2021/05/08 00:26:40;;;;;;;6.03;5.50;;;;;;;;;;4999105;28;20190;-45
2021/05/08 00:29:05;;;;;;;5.70;5.30;;;;;;;;;;5001865;28;20213;-42
2021/05/08 00:31:30;;;;;;;7.10;6.50;;;;;;;;;;5008569;28;20631;-43
2021/05/08 00:33:55;;;;;;;6.90;6.00;;;;;;;;;;5008149;28;20198;-43
2021/05/08 00:36:20;;;;;;;5.50;5.00;;;;;;;;;;4999815;28;20245;-44
2021/05/08 00:38:45;;;;;;;6.03;5.53;;;;;;;;;;4997450;28;20189;-44
2021/05/08 00:41:11;;;;;;;6.30;5.70;;;;;;;;;;5006929;28;20273;-47
2021/05/08 00:43:36;;;;;;;7.03;6.43;;;;;;;;;;5009607;28;20201;-43
2021/05/08 00:46:01;;;;;;;6.20;5.70;;;;;;;;;;5010391;28;20188;-43
2021/05/08 00:48:27;;;;;;;6.20;5.70;;;;;;;;;;5005368;28;20168;-43
2021/05/08 00:50:53;;;;;;;6.20;5.60;;;;;;;;;;5002247;28;20196;-43
2021/05/08 00:53:18;;;;;;;6.70;6.07;;;;;;;;;;5007012;28;20602;-43
2021/05/08 00:55:43;;;;;;;6.63;6.00;;;;;;;;;;5008179;28;20240;-43
2021/05/08 00:58:08;;;;;;;6.47;5.97;;;;;;;;;;5006497;28;20648;-44
2021/05/08 01:00:35;;;;;;;6.23;5.73;;;;;;;;;;5006618;28;20271;-44
2021/05/08 01:03:00;;;;;;;6.00;5.50;;;;;;;;;;5003851;28;20198;-44
2021/05/08 01:05:27;;;;;;;6.80;6.30;;;;;;;;;;4999360;28;20744;-44
2021/05/08 01:07:53;;;;;;;6.50;6.00;;;;;;;;;;4999525;28;20272;-44
2021/05/08 01:10:18;;;;;;;6.23;5.63;;;;;;;;;;4998360;28;20788;-45
2021/05/08 01:12:43;;;;;;;6.60;6.10;;;;;;;;;;5000980;28;20241;-44
2021/05/08 01:15:09;;;;;;;6.20;5.70;;;;;;;;;;5009358;28;20194;-44
2021/05/08 01:17:35;;;;;;;6.33;5.73;;;;;;;;;;5008861;28;20181;-44
2021/05/08 01:20:00;;;;;;;5.63;5.20;;;;;;;;;;5009116;28;20665;-44
2021/05/08 01:22:26;;;;;;;6.43;5.93;;;;;;;;;;5009424;28;20195;-44
2021/05/08 01:24:51;;;;;;;7.63;5.90;;;;;;;;;;5007287;28;20205;-44
2021/05/08 01:27:16;;;;;;;6.20;5.80;;;;;;;;;;5009362;28;20592;-44
2021/05/08 01:29:41;;;;;;;6.03;5.50;;;;;;;;;;4992262;28;20216;-44
2021/05/08 01:32:06;;;;;;;6.23;5.73;;;;;;;;;;5007715;28;20205;-44
2021/05/08 01:34:32;;;;;;;6.40;5.80;;;;;;;;;;5002405;28;20554;-44
2021/05/08 01:36:57;;;;;;;5.60;5.20;;;;;;;;;;4999162;28;20209;-45
2021/05/08 01:39:22;;;;;;;5.83;5.33;;;;;;;;;;4998500;28;20233;-44
2021/05/08 01:41:47;;;;;;;5.87;5.40;;;;;;;;;;5005873;28;20184;-44
2021/05/08 01:44:12;;;;;;;6.07;5.57;;;;;;;;;;5008788;28;20206;-45
2021/05/08 01:46:38;;;;;;;6.03;5.50;;;;;;;;;;5005944;28;20251;-44
2021/05/08 01:49:03;;;;;;;6.00;5.50;;;;;;;;;;5001721;28;20165;-44
2021/05/08 01:51:29;;;;;;;5.40;5.00;;;;;;;;;;5003350;28;20177;-44
2021/05/08 01:53:54;;;;;;;5.50;5.10;;;;;;;;;;5017384;28;20182;-44
2021/05/08 01:56:19;;;;;;;5.37;4.97;;;;;;;;;;5000785;28;20180;-44
2021/05/08 01:58:44;;;;;;;5.95;5.40;;;;;;;;;;5009585;28;20257;-44
2021/05/08 02:01:09;;;;;;;6.10;5.60;;;;;;;;;;5006653;28;20170;-44
2021/05/08 02:03:34;;;;;;;7.50;5.93;;;;;;;;;;5008903;28;20513;-44
2021/05/08 02:05:59;;;;;;;6.50;6.00;;;;;;;;;;5002129;28;20185;-44
2021/05/08 02:08:25;;;;;;;6.40;5.80;;;;;;;;;;5005617;28;20178;-43
2021/05/08 02:10:50;;;;;;;7.97;5.50;;;;;;;;;;5004092;28;20197;-44
2021/05/08 02:13:15;;;;;;;6.20;5.43;;;;;;;;;;4999906;28;20236;-43
2021/05/08 02:15:41;;;;;;;6.33;5.73;;;;;;;;;;5008049;28;20179;-44
2021/05/08 02:18:06;;;;;;;6.30;5.80;;;;;;;;;;5001176;28;20177;-43
2021/05/08 02:20:33;;;;;;;6.20;5.70;;;;;;;;;;5008434;28;20178;-44
2021/05/08 02:23:01;;;;;;;5.90;5.40;;;;;;;;;;4999287;28;20534;-44
2021/05/08 02:25:26;;;;;;;6.53;6.03;;;;;;;;;;5008550;28;21005;-44
2021/05/08 02:27:52;;;;;;;6.57;5.97;;;;;;;;;;5004213;28;20598;-44
2021/05/08 02:30:19;;;;;;;6.00;5.60;;;;;;;;;;5003281;28;20168;-44
2021/05/08 02:32:44;;;;;;;6.60;6.10;;;;;;;;;;5002997;28;20237;-44
2021/05/08 02:35:10;;;;;;;6.03;5.53;;;;;;;;;;5007944;28;21184;-44
2021/05/08 02:37:35;;;;;;;6.00;5.60;;;;;;;;;;4995342;28;20266;-44
2021/05/08 02:40:00;;;;;;;5.83;5.33;;;;;;;;;;5008055;28;20170;-44
2021/05/08 02:42:26;;;;;;;6.93;6.33;;;;;;;;;;5007750;28;20181;-44
2021/05/08 02:44:51;;;;;;;6.20;5.70;;;;;;;;;;5007173;28;20734;-44
2021/05/08 02:47:17;;;;;;;5.73;5.23;;;;;;;;;;5000044;28;20171;-44
2021/05/08 02:49:43;;;;;;;6.10;5.50;;;;;;;;;;5006030;28;20178;-44
2021/05/08 02:52:09;;;;;;;5.93;5.43;;;;;;;;;;4996964;28;20166;-45
2021/05/08 02:54:34;;;;;;;5.85;5.35;;;;;;;;;;4995348;28;20656;-45
2021/05/08 02:56:59;;;;;;;6.07;5.53;;;;;;;;;;4993202;28;20287;-45
2021/05/08 02:59:24;;;;;;;5.68;5.28;;;;;;;;;;5005412;28;20181;-45
2021/05/08 03:01:49;;;;;;;6.03;5.63;;;;;;;;;;5004254;28;20636;-45
2021/05/08 03:04:14;;;;;;;5.95;5.45;;;;;;;;;;4992273;28;20208;-44
2021/05/08 03:06:39;;;;;;;5.90;5.45;;;;;;;;;;5001921;28;20185;-44
2021/05/08 03:09:05;;;;;;;5.65;5.25;;;;;;;;;;4998196;28;20555;-44
2021/05/08 03:11:30;;;;;;;5.90;5.40;;;;;;;;;;5006617;28;20184;-44
2021/05/08 03:13:55;;;;;;;5.70;5.30;;;;;;;;;;5000762;28;20311;-45
2021/05/08 03:16:20;;;;;;;6.20;5.70;;;;;;;;;;4998959;28;20194;-44
2021/05/08 03:18:45;;;;;;;5.38;4.97;;;;;;;;;;5001144;28;20636;-44
2021/05/08 03:21:10;;;;;;;5.60;5.10;;;;;;;;;;5008593;28;20185;-44
2021/05/08 03:23:35;;;;;;;6.53;6.00;;;;;;;;;;5007400;28;20358;-44
2021/05/08 03:26:01;;;;;;;5.97;5.57;;;;;;;;;;5005853;28;20184;-45
2021/05/08 03:28:26;;;;;;;6.20;5.70;;;;;;;;;;5002285;28;20167;-44
2021/05/08 03:30:51;;;;;;;5.72;5.32;;;;;;;;;;5005142;28;20179;-44
2021/05/08 03:33:16;;;;;;;6.22;5.80;;;;;;;;;;5004970;28;20669;-43
2021/05/08 03:35:41;;;;;;;6.95;6.45;;;;;;;;;;5008177;28;20169;-44
2021/05/08 03:38:06;;;;;;;5.80;5.40;;;;;;;;;;5011362;28;20190;-44
2021/05/08 03:40:31;;;;;;;5.60;5.20;;;;;;;;;;4997288;28;20174;-44
2021/05/08 03:42:57;;;;;;;5.45;5.05;;;;;;;;;;5009572;28;20206;-44
2021/05/08 03:45:22;;;;;;;6.23;5.73;;;;;;;;;;5010914;28;20626;-44
2021/05/08 03:47:47;;;;;;;6.80;6.30;;;;;;;;;;5003965;28;20210;-44
2021/05/08 03:50:12;;;;;;;6.25;5.75;;;;;;;;;;5007465;28;20181;-44
2021/05/08 03:52:37;;;;;;;5.83;5.37;;;;;;;;;;4998285;28;20661;-44
2021/05/08 03:55:03;;;;;;;6.30;5.88;;;;;;;;;;5006946;28;20639;-44
2021/05/08 03:57:28;;;;;;;6.60;6.10;;;;;;;;;;5009691;28;20177;-44
2021/05/08 03:59:53;;;;;;;6.88;6.38;;;;;;;;;;5011089;28;20176;-43
2021/05/08 04:02:18;;;;;;;6.90;6.32;;;;;;;;;;5009542;28;20180;-43
2021/05/08 04:04:44;;;;;;;6.43;5.93;;;;;;;;;;5008215;28;20742;-43
2021/05/08 04:07:09;;;;;;;6.47;5.97;;;;;;;;;;5008268;28;20179;-45
2021/05/08 04:09:34;;;;;;;6.60;6.10;;;;;;;;;;5009229;28;20178;-44
2021/05/08 04:11:59;;;;;;;6.43;5.90;;;;;;;;;;5008938;28;20246;-44
2021/05/08 04:14:24;;;;;;;6.00;5.50;;;;;;;;;;5010400;28;20183;-44
2021/05/08 04:16:49;;;;;;;6.40;5.90;;;;;;;;;;5010700;28;20187;-45
2021/05/08 04:19:14;;;;;;;6.20;5.60;;;;;;;;;;5001064;28;20186;-41
2021/05/08 04:21:40;;;;;;;6.27;5.80;;;;;;;;;;5009568;28;20320;-42
2021/05/08 04:24:05;;;;;;;5.93;5.40;;;;;;;;;;5004886;28;20221;-44
2021/05/08 04:26:30;;;;;;;6.23;5.73;;;;;;;;;;4991850;28;20188;-44
2021/05/08 04:28:55;;;;;;;5.60;5.20;;;;;;;;;;5005485;28;20196;-45
2021/05/08 04:31:21;;;;;;;5.40;5.00;;;;;;;;;;5006439;28;20178;-44
2021/05/08 04:33:46;;;;;;;6.30;5.80;;;;;;;;;;5008060;28;20180;-44
2021/05/08 04:36:11;;;;;;;5.97;5.47;;;;;;;;;;5004161;28;20182;-44
2021/05/08 04:38:40;;;;;;;5.63;5.25;;;;;;;;;;5008307;28;20696;-45
2021/05/08 04:41:05;;;;;;;6.47;5.97;;;;;;;;;;5008642;28;20353;-44
2021/05/08 04:43:31;;;;;;;6.13;5.60;;;;;;;;;;5005838;28;20647;-44
2021/05/08 04:45:56;;;;;;;5.80;5.37;;;;;;;;;;5005589;28;20542;-45
2021/05/08 04:48:26;;;;;;;6.07;5.67;;;;;;;;;;5010258;28;20184;-44
2021/05/08 04:50:52;;;;;;;7.17;6.63;;;;;;;;;;4997502;28;20187;-45
2021/05/08 04:53:17;;;;;;;5.90;5.47;;;;;;;;;;5004347;28;20623;-45
2021/05/08 04:55:42;;;;;;;5.57;5.17;;;;;;;;;;5001825;28;20674;-44
2021/05/08 04:58:07;;;;;;;5.80;5.35;;;;;;;;;;5007137;28;20193;-45
2021/05/08 05:00:33;;;;;;;5.27;4.77;;;;;;;;;;5000267;28;20181;-45
2021/05/08 05:02:58;;;;;;;5.93;5.07;;;;;;;;;;5003294;28;20224;-44
2021/05/08 05:05:23;;;;;;;5.67;5.27;;;;;;;;;;4991844;28;20371;-45
2021/05/08 05:07:48;;;;;;;6.13;5.63;;;;;;;;;;5002721;28;20200;-44
2021/05/08 05:10:14;;;;;;;6.10;5.60;;;;;;;;;;5010707;28;20277;-44
2021/05/08 05:12:39;;;;;;;5.30;5.00;;;;;;;;;;5009520;28;20281;-44
2021/05/08 05:15:05;;;;;;;5.23;4.90;;;;;;;;;;5010061;28;20581;-44
2021/05/08 05:17:31;;;;;;;5.33;5.03;;;;;;;;;;5010996;28;20248;-45
2021/05/08 05:19:56;;;;;;;5.97;5.57;;;;;;;;;;5010553;28;20630;-44
2021/05/08 05:22:21;;;;;;;6.05;5.65;;;;;;;;;;5010388;28;20615;-44
2021/05/08 05:24:46;;;;;;;6.20;5.73;;;;;;;;;;5009340;28;20203;-45
2021/05/08 05:27:11;;;;;;;6.07;5.60;;;;;;;;;;5009465;28;20238;-44
2021/05/08 05:29:36;;;;;;;6.18;5.70;;;;;;;;;;5006868;28;20178;-44
2021/05/08 05:32:01;;;;;;;6.35;5.95;;;;;;;;;;5001246;28;20539;-44
2021/05/08 05:34:27;;;;;;;6.43;5.88;;;;;;;;;;5005629;28;20189;-44
2021/05/08 05:36:52;;;;;;;6.75;5.57;;;;;;;;;;4999871;28;20269;-45
2021/05/08 05:39:18;;;;;;;5.57;5.17;;;;;;;;;;5001324;28;20554;-45
2021/05/08 05:41:43;;;;;;;6.70;6.20;;;;;;;;;;5005058;28;20184;-45
2021/05/08 05:44:08;;;;;;;6.57;6.07;;;;;;;;;;5002526;28;20750;-46
2021/05/08 05:46:33;;;;;;;6.20;5.80;;;;;;;;;;5003151;28;20197;-44
2021/05/08 05:48:58;;;;;;;6.40;6.00;;;;;;;;;;5000128;28;20698;-44
2021/05/08 05:51:24;;;;;;;5.57;5.23;;;;;;;;;;5000171;28;20192;-45
2021/05/08 05:53:56;;;;;;;5.57;5.17;;;;;;;;;;4996985;28;20178;-45
2021/05/08 05:56:22;;;;;;;6.50;6.10;;;;;;;;;;4991760;28;20181;-44
2021/05/08 05:58:47;;;;;;;7.00;6.57;;;;;;;;;;5004190;28;20981;-45
2021/05/08 06:01:12;;;;;;;7.30;6.80;;;;;;;;;;5002632;28;20639;-45
2021/05/08 06:03:37;;;;;;;7.25;6.75;;;;;;;;;;5004826;28;20215;-44
2021/05/08 06:06:02;;;;;;;9.43;8.63;;;;;;;;;;4989058;28;20317;-43
2021/05/08 06:08:27;;;;;;;8.00;7.40;;;;;;;;;;5000918;28;20176;-45
2021/05/08 06:10:52;;;;;;;8.88;8.27;;;;;;;;;;5004446;28;20197;-44
2021/05/08 06:13:17;;;;;;;7.78;7.22;;;;;;;;;;5008112;28;20221;-45
2021/05/08 06:15:43;;;;;;;8.50;7.90;;;;;;;;;;5009026;28;20190;-44
2021/05/08 06:18:08;;;;;;;8.80;8.10;;;;;;;;;;5004100;28;20174;-44
2021/05/08 06:20:33;;;;;;;7.17;6.67;;;;;;;;;;4998605;28;20224;-44
2021/05/08 06:22:58;;;;;;;7.85;7.25;;;;;;;;;;4999708;28;20260;-45
2021/05/08 06:25:24;;;;;;;7.53;6.93;;;;;;;;;;4997911;28;20643;-44
2021/05/08 06:27:49;;;;;;;7.50;7.00;;;;;;;;;;5002933;28;20170;-44
2021/05/08 06:30:14;;;;;;;7.78;7.22;;;;;;;;;;5001846;28;20166;-45
2021/05/08 06:32:39;;;;;;;7.97;7.37;;;;;;;;;;5004561;28;20269;-45
2021/05/08 06:35:05;;;;;;;8.13;7.53;;;;;;;;;;4998434;28;20187;-46
2021/05/08 06:37:30;;;;;;;7.13;6.63;;;;;;;;;;5006344;28;20300;-45
2021/05/08 06:39:56;;;;;;;8.20;7.60;;;;;;;;;;5008511;28;20182;-45
2021/05/08 06:42:21;;;;;;;8.93;8.10;;;;;;;;;;5006728;28;20633;-44
2021/05/08 06:44:46;;;;;;;8.05;7.55;;;;;;;;;;5006127;28;21229;-44
2021/05/08 06:47:14;;;;;;;8.48;7.78;;;;;;;;;;5007800;28;20537;-45
2021/05/08 06:49:41;;;;;;;8.43;7.80;;;;;;;;;;5008222;28;20180;-44
2021/05/08 06:52:06;;;;;;;8.50;7.90;;;;;;;;;;5003194;28;20593;-45
2021/05/08 06:54:31;;;;;;;8.50;7.90;;;;;;;;;;5005509;28;20677;-44
2021/05/08 06:56:56;;;;;;;13.10;12.00;;;;;;;;;;5007473;28;20177;-44
2021/05/08 06:59:22;;;;;;;10.00;9.20;;;;;;;;;;5008478;28;20514;-44
2021/05/08 07:01:47;;;;;;;10.43;9.60;;;;;;;;;;5006994;28;20173;-44
2021/05/08 07:04:12;;;;;;;11.50;10.60;;;;;;;;;;5007272;28;20604;-45
2021/05/08 07:06:37;;;;;;;11.25;10.30;;;;;;;;;;5002467;28;20606;-44
2021/05/08 07:09:02;;;;;;;12.40;11.45;;;;;;;;;;5006440;28;20169;-45
2021/05/08 07:11:28;;;;;;;11.43;10.43;;;;;;;;;;5007804;28;20238;-44
2021/05/08 07:13:53;;;;;;;11.00;10.20;;;;;;;;;;5009838;28;20194;-46
2021/05/08 07:16:18;;;;;;;11.00;10.10;;;;;;;;;;5007695;28;20220;-45
2021/05/08 07:18:43;;;;;;;11.70;10.80;;;;;;;;;;5008835;28;20187;-46
2021/05/08 07:21:08;;;;;;;10.77;9.70;;;;;;;;;;5007351;28;20547;-45
2021/05/08 07:23:33;;;;;;;10.07;9.27;;;;;;;;;;5007593;28;20206;-44
2021/05/08 07:25:59;;;;;;;10.90;10.10;;;;;;;;;;5008341;28;20192;-44
2021/05/08 07:28:24;;;;;;;12.15;11.15;;;;;;;;;;4996198;28;20190;-45
2021/05/08 07:30:50;;;;;;;10.23;9.53;;;;;;;;;;5003248;28;20240;-45
2021/05/08 07:33:16;;;;;;;10.90;10.10;;;;;;;;;;4991922;28;20188;-45
2021/05/08 07:35:42;;;;;;;12.10;11.10;;;;;;;;;;4995799;28;21200;-45
2021/05/08 07:38:07;;;;;;;13.00;11.90;;;;;;;;;;4996484;28;20178;-44
2021/05/08 07:40:32;;;;;;;12.93;11.83;;;;;;;;;;5004015;28;20603;-44
2021/05/08 07:42:58;;;;;;;13.80;12.70;;;;;;;;;;4996603;28;20263;-44
2021/05/08 07:45:24;;;;;;;12.60;11.60;;;;;;;;;;5000061;28;20699;-44
2021/05/08 07:47:49;;;;;;;12.50;11.30;;;;;;;;;;4999926;28;20957;-45
2021/05/08 07:50:15;;;;;;;12.47;11.27;;;;;;;;;;4996621;28;20170;-45
2021/05/08 07:52:40;;;;;;;12.50;11.50;;;;;;;;;;5002904;28;20636;-45
2021/05/08 07:55:05;;;;;;;12.52;11.50;;;;;;;;;;5001304;28;20590;-45
2021/05/08 07:57:31;;;;;;;13.60;12.50;;;;;;;;;;5003883;28;20194;-44
2021/05/08 07:59:56;;;;;;;12.47;11.40;;;;;;;;;;4992528;28;20180;-44
2021/05/08 08:02:21;;;;;;;12.83;11.70;;;;;;;;;;4992195;28;20682;-43
2021/05/08 08:04:46;;;;;;;13.32;12.15;;;;;;;;;;5001115;28;20208;-44
2021/05/08 08:07:11;;;;;;;10.30;9.50;;;;;;;;;;5001035;28;20585;-45
2021/05/08 08:09:36;;;;;;;12.27;11.13;;;;;;;;;;5003693;28;20176;-44
2021/05/08 08:12:02;;;;;;;11.60;10.63;;;;;;;;;;4998009;28;20266;-45
2021/05/08 08:14:27;;;;;;;11.00;10.00;;;;;;;;;;5012803;28;20277;-44
2021/05/08 08:16:52;;;;;;;12.03;11.13;;;;;;;;;;5018828;28;20171;-44
2021/05/08 08:19:17;;;;;;;9.60;8.90;;;;;;;;;;5007315;28;20186;-45
2021/05/08 08:21:42;;;;;;;12.80;11.00;;;;;;;;;;5007612;28;20173;-45
2021/05/08 08:24:08;;;;;;;11.57;10.68;;;;;;;;;;5003077;28;20227;-44
2021/05/08 08:26:35;;;;;;;11.07;10.13;;;;;;;;;;5001785;28;20188;-43
2021/05/08 08:29:00;;;;;;;9.77;9.07;;;;;;;;;;5003440;28;20170;-44
2021/05/08 08:31:26;;;;;;;12.57;11.63;;;;;;;;;;5001715;28;20615;-44
2021/05/08 08:33:52;;;;;;;13.03;11.73;;;;;;;;;;5002995;28;20550;-44
2021/05/08 08:36:17;;;;;;;10.45;9.65;;;;;;;;;;5007065;28;20595;-44
2021/05/08 08:38:42;;;;;;;12.10;11.10;;;;;;;;;;5007520;28;20699;-43
2021/05/08 08:41:07;;;;;;;14.48;13.27;;;;;;;;;;5004988;28;20172;-44
2021/05/08 08:43:32;;;;;;;13.52;12.35;;;;;;;;;;5001053;28;20195;-45
2021/05/08 08:45:58;;;;;;;13.75;12.75;;;;;;;;;;5002914;28;20209;-45
2021/05/08 08:48:23;;;;;;;12.83;11.73;;;;;;;;;;5002873;28;20706;-45
2021/05/08 08:50:50;;;;;;;12.47;11.47;;;;;;;;;;5001127;28;20253;-44
2021/05/08 08:53:16;;;;;;;12.20;11.30;;;;;;;;;;5006391;28;20626;-45
2021/05/08 08:55:42;;;;;;;12.30;11.40;;;;;;;;;;5005862;28;20613;-45
2021/05/08 08:58:07;;;;;;;11.20;10.30;;;;;;;;;;5002684;28;20180;-44
2021/05/08 09:00:32;;;;;;;13.07;11.83;;;;;;;;;;5001017;28;20583;-45
2021/05/08 09:02:58;;;;;;;12.93;11.83;;;;;;;;;;5002576;28;20211;-45
2021/05/08 09:05:24;;;;;;;13.07;12.03;;;;;;;;;;5002805;28;20180;-44
2021/05/08 09:07:51;;;;;;;13.27;12.27;;;;;;;;;;5006247;28;20175;-44
2021/05/08 09:10:20;;;;;;;11.90;10.87;;;;;;;;;;5002956;28;20654;-46
2021/05/08 09:12:45;;;;;;;13.00;11.87;;;;;;;;;;5002434;28;20730;-45
2021/05/08 09:15:11;;;;;;;12.27;11.27;;;;;;;;;;5002318;28;21142;-44
2021/05/08 09:17:41;;;;;;;11.90;11.00;;;;;;;;;;5005932;28;20183;-45
2021/05/08 09:20:07;;;;;;;11.23;10.37;;;;;;;;;;5004033;28;20805;-45
2021/05/08 09:22:33;;;;;;;9.80;9.00;;;;;;;;;;5002214;28;20592;-44
2021/05/08 09:25:10;;;;;;;12.17;11.27;;;;;;;;;;5000687;28;20203;-44
2021/05/08 09:27:38;;;;;;;9.63;8.93;;;;;;;;;;5000996;28;20671;-44
2021/05/08 09:30:14;;;;;;;9.93;9.13;;;;;;;;;;5001577;28;21182;-45
2021/05/08 09:32:43;;;;;;;7.77;7.20;;;;;;;;;;5005683;28;21146;-44
2021/05/08 09:35:10;;;;;;;9.07;8.37;;;;;;;;;;5003423;28;20980;-44
2021/05/08 09:37:36;;;;;;;7.73;7.17;;;;;;;;;;5005729;28;20600;-45
2021/05/08 09:40:16;;;;;;;8.00;7.40;;;;;;;;;;5000010;28;20605;-44
2021/05/08 09:42:46;;;;;;;9.50;8.70;;;;;;;;;;4999765;28;20621;-44
2021/05/08 09:45:14;;;;;;;9.53;8.77;;;;;;;;;;5001737;28;21029;-43
2021/05/08 09:47:39;;;;;;;8.87;8.17;;;;;;;;;;5004877;28;20946;-44
2021/05/08 09:50:04;;;;;;;8.13;7.53;;;;;;;;;;5003241;28;20600;-44
2021/05/08 09:52:43;;;;;;;8.07;7.47;;;;;;;;;;5005473;28;20175;-43
2021/05/08 09:55:08;;;;;;;9.93;8.93;;;;;;;;;;5002924;28;20277;-44
2021/05/08 09:57:33;;;;;;;8.73;8.10;;;;;;;;;;5003497;28;20674;-45
2021/05/08 09:59:58;;;;;;;7.25;6.75;;;;;;;;;;5001736;28;20176;-45
2021/05/08 10:02:23;;;;;;;7.70;7.17;;;;;;;;;;5002704;28;20180;-46
2021/05/08 10:04:50;;;;;;;7.97;7.37;;;;;;;;;;5008868;28;20240;-46
2021/05/08 10:07:16;;;;;;;10.53;9.53;;;;;;;;;;5005521;28;20665;-46
2021/05/08 10:09:42;;;;;;;7.90;7.30;;;;;;;;;;5008623;28;20605;-46
2021/05/08 10:12:14;;;;;;;9.33;7.53;;;;;;;;;;5008396;28;20223;-45
2021/05/08 10:14:41;;;;;;;6.80;6.20;;;;;;;;;;5008035;28;20618;-45
2021/05/08 10:17:08;;;;;;;6.87;4.20;;;;;;;;;;5008046;28;20606;-45
2021/05/08 10:19:33;;;;;;;5.83;5.30;;;;;;;;;;5008155;28;20619;-45
2021/05/08 10:22:01;;;;;;;6.70;6.20;;;;;;;;;;5008855;28;20599;-45
2021/05/08 10:24:27;;;;;;;5.80;5.37;;;;;;;;;;5007244;28;20202;-44
2021/05/08 10:26:57;;;;;;;6.57;6.07;;;;;;;;;;5008112;28;20702;-45
2021/05/08 10:29:22;;;;;;;5.93;5.43;;;;;;;;;;5008817;28;20205;-43
2021/05/08 10:31:47;;;;;;;7.73;7.10;;;;;;;;;;5008034;28;21114;-44
2021/05/08 10:34:12;;;;;;;7.23;6.73;;;;;;;;;;5007912;28;20209;-45
2021/05/08 10:36:45;;;;;;;6.93;6.43;;;;;;;;;;5007969;28;20177;-45
2021/05/08 10:39:10;;;;;;;5.77;5.33;;;;;;;;;;5007445;28;20209;-46
2021/05/08 10:41:52;;;;;;;6.90;6.40;;;;;;;;;;5007532;28;20636;-45
2021/05/08 10:44:35;;;;;;;6.30;5.80;;;;;;;;;;5006801;28;20554;-44
2021/05/08 10:47:01;;;;;;;7.43;6.93;;;;;;;;;;4998423;28;20603;-44
2021/05/08 10:49:26;;;;;;;8.10;7.45;;;;;;;;;;5003224;28;20596;-45
2021/05/08 10:51:54;;;;;;;6.03;5.60;;;;;;;;;;5007863;28;20234;-44
2021/05/08 10:54:55;;;;;;;6.83;6.00;;;;;;;;;;5002751;28;20269;-44
2021/05/08 10:57:24;;;;;;;4.90;4.60;;;;;;;;;;5017593;28;21188;-44
2021/05/08 11:00:01;;;;;;;4.30;4.00;;;;;;;;;;5003172;28;20708;-45
2021/05/08 11:02:44;;;;;;;4.50;4.20;;;;;;;;;;4997724;28;20713;-45
2021/05/08 11:05:30;;;;;;;5.30;4.80;;;;;;;;;;5006394;28;20635;-44
2021/05/08 11:07:55;;;;;;;5.13;4.83;;;;;;;;;;5007883;28;20646;-45
2021/05/08 11:10:33;;;;;;;5.93;5.50;;;;;;;;;;4998854;28;20624;-44
2021/05/08 11:13:12;;;;;;;5.77;5.37;;;;;;;;;;5000641;28;20588;-46
2021/05/08 11:15:49;;;;;;;5.27;4.90;;;;;;;;;;4993113;28;20635;-45
2021/05/08 11:18:29;;;;;;;6.60;5.20;;;;;;;;;;5006464;28;20638;-45
2021/05/08 11:20:54;;;;;;;5.90;5.40;;;;;;;;;;5008385;28;20582;-45
2021/05/08 11:23:20;;;;;;;6.18;5.78;;;;;;;;;;4993803;28;20647;-43
2021/05/08 11:25:45;;;;;;;4.50;4.20;;;;;;;;;;5006284;28;20635;-43
2021/05/08 11:28:10;;;;;;;4.82;4.43;;;;;;;;;;5006031;28;20170;-45
2021/05/08 11:30:49;;;;;;;5.22;4.82;;;;;;;;;;5003895;28;20178;-46
2021/05/08 11:33:21;;;;;;;4.20;3.90;;;;;;;;;;5006207;28;20231;-44
2021/05/08 11:35:58;;;;;;;4.77;4.40;;;;;;;;;;5007629;28;20611;-46
2021/05/08 11:38:23;;;;;;;4.97;4.47;;;;;;;;;;5008378;28;20608;-45
2021/05/08 11:40:48;;;;;;;4.68;4.28;;;;;;;;;;5007673;28;20606;-43
2021/05/08 11:43:20;;;;;;;5.40;4.90;;;;;;;;;;5007880;28;20261;-44
2021/05/08 11:45:45;;;;;;;4.80;4.40;;;;;;;;;;5007748;28;20180;-42
2021/05/08 11:48:10;;;;;;;8.10;4.50;;;;;;;;;;5006971;28;21180;-43
2021/05/08 11:50:35;;;;;;;4.80;4.50;;;;;;;;;;4993081;28;20177;-43
2021/05/08 11:53:00;;;;;;;4.15;3.85;;;;;;;;;;5000583;28;20173;-43
2021/05/08 11:55:27;;;;;;;4.33;4.03;;;;;;;;;;5010102;28;20174;-42
2021/05/08 11:58:00;;;;;;;5.03;4.63;;;;;;;;;;5010890;28;20174;-45
2021/05/08 12:00:32;;;;;;;5.20;4.80;;;;;;;;;;5010622;28;20609;-44
2021/05/08 12:03:30;;;;;;;4.27;3.97;;;;;;;;;;5002589;28;20620;-47
2021/05/08 12:05:55;;;;;;;3.47;3.27;;;;;;;;;;5007358;28;21153;-44
2021/05/08 12:08:24;;;;;;;5.23;4.77;;;;;;;;;;5007991;28;20607;-44
2021/05/08 12:10:50;;;;;;;4.40;4.00;;;;;;;;;;4992013;28;20221;-44
2021/05/08 12:13:15;;;;;;;4.00;3.70;;;;;;;;;;5005963;28;21252;-45
2021/05/08 12:15:41;;;;;;;4.00;3.70;;;;;;;;;;4994735;28;20631;-45
2021/05/08 12:18:10;;;;;;;4.30;4.00;;;;;;;;;;5008056;28;20190;-45
2021/05/08 12:20:37;;;;;;;4.93;4.60;;;;;;;;;;5008047;28;20696;-45
2021/05/08 12:23:04;;;;;;;5.13;4.73;;;;;;;;;;5007847;28;21012;-44
2021/05/08 12:25:30;;;;;;;5.30;4.80;;;;;;;;;;5007817;28;20643;-44
2021/05/08 12:28:14;;;;;;;4.10;3.80;;;;;;;;;;5007748;28;20631;-44
2021/05/08 12:30:40;;;;;;;4.47;4.17;;;;;;;;;;5008359;28;20174;-45
2021/05/08 12:33:13;;;;;;;4.53;4.23;;;;;;;;;;5007297;28;20603;-43
2021/05/08 12:35:39;;;;;;;4.37;4.07;;;;;;;;;;5008306;28;20215;-45
2021/05/08 12:38:09;;;;;;;4.40;3.80;;;;;;;;;;5001856;28;20602;-44
2021/05/08 12:40:34;;;;;;;6.47;5.10;;;;;;;;;;5000865;28;20178;-45
2021/05/08 12:42:59;;;;;;;4.78;4.38;;;;;;;;;;5001912;28;20670;-44
2021/05/08 12:45:24;;;;;;;5.07;4.68;;;;;;;;;;4996711;28;20263;-44
2021/05/08 12:47:49;;;;;;;5.20;4.80;;;;;;;;;;5007655;28;20637;-45
2021/05/08 12:50:22;;;;;;;5.50;5.20;;;;;;;;;;5022294;28;20252;-45
2021/05/08 12:52:58;;;;;;;5.00;4.70;;;;;;;;;;5006360;28;20181;-44
2021/05/08 12:55:24;;;;;;;4.17;3.87;;;;;;;;;;4995832;28;20607;-44
2021/05/08 12:57:50;;;;;;;3.70;3.50;;;;;;;;;;5006127;28;20986;-44
2021/05/08 13:00:17;;;;;;;4.33;4.13;;;;;;;;;;5006367;28;21234;-44
2021/05/08 13:02:43;;;;;;;4.10;3.90;;;;;;;;;;5002727;28;20816;-45
2021/05/08 13:05:10;;;;;;;4.10;3.90;;;;;;;;;;5006620;28;20645;-44
2021/05/08 13:07:38;;;;;;;3.90;3.60;;;;;;;;;;5006276;28;21030;-42
2021/05/08 13:10:17;;;;;;;4.93;4.63;;;;;;;;;;5001258;28;20623;-44
2021/05/08 13:12:42;;;;;;;4.40;4.03;;;;;;;;;;4993522;28;20640;-45
2021/05/08 13:15:09;;;;;;;5.90;5.50;;;;;;;;;;5006340;28;21184;-45
2021/05/08 13:17:34;;;;;;;5.20;4.80;;;;;;;;;;5006853;28;20194;-44
2021/05/08 13:19:59;;;;;;;4.70;4.40;;;;;;;;;;5005722;28;20606;-45
2021/05/08 13:22:24;;;;;;;5.20;4.80;;;;;;;;;;5006933;28;20185;-45
2021/05/08 13:24:51;;;;;;;4.43;4.13;;;;;;;;;;5006211;28;20226;-45
2021/05/08 13:27:16;;;;;;;5.03;4.73;;;;;;;;;;5006498;28;20193;-45
2021/05/08 13:29:41;;;;;;;4.00;3.80;;;;;;;;;;5006415;28;20596;-45
2021/05/08 13:32:06;;;;;;;3.63;3.42;;;;;;;;;;5005899;28;20205;-43
2021/05/08 13:34:31;;;;;;;3.60;3.30;;;;;;;;;;5006479;28;20185;-44
2021/05/08 13:36:56;;;;;;;3.53;3.30;;;;;;;;;;5005794;28;20174;-45
2021/05/08 13:39:21;;;;;;;3.20;3.00;;;;;;;;;;5007206;28;20172;-44
2021/05/08 13:41:47;;;;;;;4.13;3.83;;;;;;;;;;5008046;28;20184;-44
2021/05/08 13:44:12;;;;;;;3.67;3.47;;;;;;;;;;5008692;28;20213;-44
2021/05/08 13:46:37;;;;;;;4.28;3.97;;;;;;;;;;5008914;28;20211;-45
2021/05/08 13:49:02;;;;;;;4.37;4.00;;;;;;;;;;5009096;28;20250;-45
2021/05/08 13:51:28;;;;;;;3.67;3.37;;;;;;;;;;5008791;28;20629;-45
2021/05/08 13:53:53;;;;;;;3.85;3.55;;;;;;;;;;5008808;28;20182;-44
2021/05/08 13:56:18;;;;;;;3.40;3.20;;;;;;;;;;5009020;28;20191;-45
2021/05/08 13:58:43;;;;;;;3.00;2.80;;;;;;;;;;5008872;28;20173;-44
2021/05/08 14:01:08;;;;;;;2.60;2.50;;;;;;;;;;5008367;28;20596;-44
2021/05/08 14:03:33;;;;;;;3.35;3.15;;;;;;;;;;5008561;28;20208;-44
2021/05/08 14:05:59;;;;;;;3.57;3.27;;;;;;;;;;5008509;28;20178;-44
2021/05/08 14:08:24;;;;;;;3.63;3.35;;;;;;;;;;5008940;28;20176;-44
2021/05/08 14:10:49;;;;;;;3.72;3.47;;;;;;;;;;5007577;28;20222;-45
2021/05/08 14:13:14;;;;;;;3.70;3.40;;;;;;;;;;5005815;28;20285;-43
2021/05/08 14:15:39;;;;;;;3.73;3.53;;;;;;;;;;5005365;28;20179;-45
2021/05/08 14:18:04;;;;;;;3.80;3.53;;;;;;;;;;5006702;28;20186;-44
2021/05/08 14:20:30;;;;;;;4.00;3.70;;;;;;;;;;5007626;28;20176;-44
2021/05/08 14:22:55;;;;;;;3.03;2.83;;;;;;;;;;5005508;28;20179;-43
2021/05/08 14:25:20;;;;;;;4.30;2.80;;;;;;;;;;5007127;28;20197;-43
2021/05/08 14:27:45;;;;;;;4.30;4.00;;;;;;;;;;5008114;28;20236;-44
2021/05/08 14:30:11;;;;;;;3.90;3.60;;;;;;;;;;5007145;28;20173;-44
2021/05/08 14:32:38;;;;;;;3.30;3.10;;;;;;;;;;5007462;28;20208;-43